Time;durP1;ratioP1;P1;durP2;ratioP2;P2;SDS_P1;SDS_P2;PMS_P1;PMS_P2;Temp;Humidity;BMP_temperature;BMP_pressure;BME280_temperature;BME280_humidity;BME280_pressure;Samples;Min_cycle;Max_cycle;Signal;HPM_P1;HPM_P2
2022/05/07 00:01:58;;;;;;;21.40;14.70;;;;;;;;;;5070842;28;20555;-55
2022/05/07 00:04:24;;;;;;;20.40;15.90;;;;;;;;;;5071735;28;20428;-55
2022/05/07 00:06:50;;;;;;;20.93;15.13;;;;;;;;;;5071653;28;20822;-55
2022/05/07 00:09:17;;;;;;;27.17;16.43;;;;;;;;;;5071789;28;20422;-55
2022/05/07 00:11:43;;;;;;;28.30;18.07;;;;;;;;;;5070954;28;20762;-55
2022/05/07 00:14:08;;;;;;;25.90;17.63;;;;;;;;;;5071667;28;20459;-55
2022/05/07 00:19:19;;;;;;;29.07;17.63;;;;;;;;;;5071663;28;20445;-55
2022/05/07 00:21:45;;;;;;;23.03;16.67;;;;;;;;;;5070922;28;20389;-54
2022/05/07 00:24:11;;;;;;;28.93;17.30;;;;;;;;;;5071801;28;20440;-55
2022/05/07 00:26:37;;;;;;;26.90;17.87;;;;;;;;;;5071681;28;20418;-55
2022/05/07 00:29:03;;;;;;;27.50;16.40;;;;;;;;;;5071778;28;20412;-54
2022/05/07 00:31:29;;;;;;;26.83;16.50;;;;;;;;;;5070734;28;20430;-55
2022/05/07 00:33:55;;;;;;;27.13;16.80;;;;;;;;;;5071484;28;20485;-55
2022/05/07 00:36:21;;;;;;;27.97;17.77;;;;;;;;;;5071724;28;20395;-55
2022/05/07 00:38:47;;;;;;;23.53;15.30;;;;;;;;;;5071856;28;20423;-55
2022/05/07 00:41:13;;;;;;;29.70;16.40;;;;;;;;;;5071314;28;20474;-55
2022/05/07 00:43:41;;;;;;;24.23;15.83;;;;;;;;;;5070978;28;20462;-55
2022/05/07 00:46:07;;;;;;;29.53;17.87;;;;;;;;;;5071887;28;20418;-55
2022/05/07 00:48:33;;;;;;;22.10;17.20;;;;;;;;;;5072231;28;20912;-55
2022/05/07 00:53:46;;;;;;;24.70;17.00;;;;;;;;;;5072078;28;20467;-55
2022/05/07 00:56:12;;;;;;;26.17;17.80;;;;;;;;;;5075489;28;20502;-55
2022/05/07 00:58:38;;;;;;;25.43;16.40;;;;;;;;;;5075530;28;20497;-55
2022/05/07 01:01:05;;;;;;;32.17;17.97;;;;;;;;;;5074748;28;20426;-55
2022/05/07 01:03:31;;;;;;;20.87;16.07;;;;;;;;;;5074944;28;20432;-55
2022/05/07 01:05:57;;;;;;;23.47;15.40;;;;;;;;;;5075612;28;20421;-54
2022/05/07 01:08:25;;;;;;;27.10;16.57;;;;;;;;;;5075353;28;20501;-55
2022/05/07 01:10:52;;;;;;;22.80;16.20;;;;;;;;;;5075723;28;20456;-55
2022/05/07 01:13:18;;;;;;;20.43;15.83;;;;;;;;;;5075942;28;20872;-55
2022/05/07 01:15:47;;;;;;;23.57;17.00;;;;;;;;;;5076122;28;20751;-55
2022/05/07 01:18:15;;;;;;;23.90;17.00;;;;;;;;;;5076683;28;20409;-55
2022/05/07 01:20:41;;;;;;;22.97;16.90;;;;;;;;;;5075770;28;20453;-54
2022/05/07 01:23:08;;;;;;;20.60;15.90;;;;;;;;;;5074521;28;20433;-54
2022/05/07 01:25:34;;;;;;;27.27;16.87;;;;;;;;;;5075735;28;20963;-54
2022/05/07 01:28:00;;;;;;;23.33;16.80;;;;;;;;;;5076593;28;20789;-55
2022/05/07 01:30:26;;;;;;;23.63;17.83;;;;;;;;;;5076272;28;20417;-55
2022/05/07 01:32:52;;;;;;;29.13;18.77;;;;;;;;;;5075783;28;20896;-55
2022/05/07 01:35:18;;;;;;;31.37;20.80;;;;;;;;;;5092467;28;20458;-55
2022/05/07 01:37:44;;;;;;;41.37;21.90;;;;;;;;;;5076433;28;20413;-54
2022/05/07 01:40:11;;;;;;;39.63;21.60;;;;;;;;;;5077454;28;20463;-54
2022/05/07 01:42:37;;;;;;;32.90;20.87;;;;;;;;;;5073920;28;20535;-55
2022/05/07 01:45:03;;;;;;;34.03;19.87;;;;;;;;;;5073925;28;20417;-54
2022/05/07 01:50:14;;;;;;;25.40;18.13;;;;;;;;;;5073912;28;20521;-54
2022/05/07 01:52:40;;;;;;;26.33;18.97;;;;;;;;;;5073057;28;20540;-54
2022/05/07 01:55:07;;;;;;;33.50;19.67;;;;;;;;;;5073642;28;20471;-54
2022/05/07 01:57:33;;;;;;;31.70;18.80;;;;;;;;;;5073786;28;20467;-54
2022/05/07 01:59:59;;;;;;;35.63;21.87;;;;;;;;;;5073612;28;20535;-54
2022/05/07 02:02:25;;;;;;;37.67;21.43;;;;;;;;;;5072978;28;20810;-53
2022/05/07 02:04:52;;;;;;;36.53;22.60;;;;;;;;;;5073123;28;20482;-54
2022/05/07 02:07:18;;;;;;;26.37;18.63;;;;;;;;;;5073875;28;20409;-54
2022/05/07 02:09:43;;;;;;;27.57;18.93;;;;;;;;;;5073191;28;20471;-53
2022/05/07 02:12:10;;;;;;;30.70;17.03;;;;;;;;;;5072824;28;20414;-54
2022/05/07 02:14:36;;;;;;;20.87;15.23;;;;;;;;;;5073371;28;20831;-55
2022/05/07 02:17:02;;;;;;;23.93;16.87;;;;;;;;;;5073433;28;20421;-53
2022/05/07 02:19:28;;;;;;;28.70;17.57;;;;;;;;;;5073238;28;20414;-55
2022/05/07 02:21:53;;;;;;;30.13;17.77;;;;;;;;;;5072623;28;20466;-54
2022/05/07 02:24:19;;;;;;;26.13;17.97;;;;;;;;;;5072764;28;20432;-55
2022/05/07 02:26:45;;;;;;;29.70;18.47;;;;;;;;;;5073055;28;20464;-54
2022/05/07 02:29:14;;;;;;;22.80;16.63;;;;;;;;;;5073324;28;20425;-53
2022/05/07 02:31:39;;;;;;;27.90;19.90;;;;;;;;;;5072091;28;20792;-55
2022/05/07 02:34:05;;;;;;;35.43;19.27;;;;;;;;;;5072808;28;20455;-55
2022/05/07 02:36:32;;;;;;;29.17;20.97;;;;;;;;;;5072846;28;20531;-55
2022/05/07 02:38:59;;;;;;;36.13;23.30;;;;;;;;;;5072833;28;20503;-54
2022/05/07 02:44:09;;;;;;;31.77;22.17;;;;;;;;;;5070006;28;20796;-55
2022/05/07 02:46:35;;;;;;;31.60;21.70;;;;;;;;;;5072269;28;20412;-55
2022/05/07 02:49:01;;;;;;;31.83;21.20;;;;;;;;;;5072633;28;20416;-55
2022/05/07 02:51:27;;;;;;;33.53;20.10;;;;;;;;;;5072095;28;20416;-55
2022/05/07 02:53:53;;;;;;;35.50;23.57;;;;;;;;;;5072263;28;20495;-55
2022/05/07 02:56:19;;;;;;;32.47;22.30;;;;;;;;;;5072778;28;20393;-55
2022/05/07 02:58:45;;;;;;;29.43;19.13;;;;;;;;;;5072826;28;20431;-54
2022/05/07 03:01:11;;;;;;;30.23;19.83;;;;;;;;;;5071549;28;20477;-55
2022/05/07 03:03:37;;;;;;;32.17;21.43;;;;;;;;;;5072138;28;20440;-55
2022/05/07 03:06:03;;;;;;;27.97;20.60;;;;;;;;;;5072377;28;20427;-55
2022/05/07 03:08:29;;;;;;;28.13;20.27;;;;;;;;;;5072298;28;20822;-55
2022/05/07 03:10:55;;;;;;;30.10;21.87;;;;;;;;;;5071806;28;20424;-55
2022/05/07 03:13:21;;;;;;;34.57;21.60;;;;;;;;;;5071842;28;20826;-55
2022/05/07 03:15:47;;;;;;;32.50;22.77;;;;;;;;;;5072183;28;20485;-55
2022/05/07 03:18:13;;;;;;;27.57;21.10;;;;;;;;;;5071153;28;20413;-54
2022/05/07 03:20:40;;;;;;;27.50;20.30;;;;;;;;;;5072202;28;20499;-55
2022/05/07 03:23:06;;;;;;;33.13;22.23;;;;;;;;;;5071334;28;20426;-55
2022/05/07 03:25:32;;;;;;;34.43;22.47;;;;;;;;;;5071331;28;20417;-55
2022/05/07 03:27:58;;;;;;;28.23;21.30;;;;;;;;;;5072232;28;20412;-55
2022/05/07 03:30:24;;;;;;;33.87;22.57;;;;;;;;;;5072042;28;20452;-55
2022/05/07 03:32:50;;;;;;;30.50;20.47;;;;;;;;;;5070684;28;20433;-55
2022/05/07 03:35:16;;;;;;;27.63;19.80;;;;;;;;;;5071838;28;20463;-55
2022/05/07 03:37:42;;;;;;;31.07;20.97;;;;;;;;;;5072130;28;20404;-55
2022/05/07 03:40:08;;;;;;;31.37;21.67;;;;;;;;;;5071735;28;20412;-55
2022/05/07 03:42:34;;;;;;;29.93;20.00;;;;;;;;;;5071067;28;20441;-55
2022/05/07 03:45:01;;;;;;;29.80;19.63;;;;;;;;;;5071702;28;20964;-54
2022/05/07 03:47:27;;;;;;;28.40;20.30;;;;;;;;;;5071892;28;20418;-54
2022/05/07 03:49:52;;;;;;;28.23;18.17;;;;;;;;;;5071138;28;20425;-55
2022/05/07 03:55:03;;;;;;;29.40;20.07;;;;;;;;;;5071738;28;20555;-55
2022/05/07 03:57:29;;;;;;;27.47;19.37;;;;;;;;;;5070372;28;20460;-54
2022/05/07 03:59:57;;;;;;;26.83;18.53;;;;;;;;;;5071801;28;20397;-55
2022/05/07 04:02:23;;;;;;;25.73;18.80;;;;;;;;;;5070909;28;20777;-55
2022/05/07 04:04:49;;;;;;;29.50;20.77;;;;;;;;;;5071721;28;20478;-54
2022/05/07 04:07:15;;;;;;;26.97;18.00;;;;;;;;;;5071776;28;20408;-55
2022/05/07 04:09:42;;;;;;;36.70;19.07;;;;;;;;;;5071461;28;20473;-55
2022/05/07 04:12:08;;;;;;;23.43;17.40;;;;;;;;;;5071154;28;20404;-55
2022/05/07 04:14:34;;;;;;;27.90;17.63;;;;;;;;;;5071307;28;20452;-54
2022/05/07 04:17:00;;;;;;;22.50;17.60;;;;;;;;;;5071626;28;20408;-54
2022/05/07 04:19:26;;;;;;;36.57;19.97;;;;;;;;;;5071620;28;20903;-55
2022/05/07 04:21:52;;;;;;;26.23;18.17;;;;;;;;;;5070848;28;20427;-54
2022/05/07 04:24:18;;;;;;;27.23;18.40;;;;;;;;;;5071911;28;20431;-54
2022/05/07 04:26:44;;;;;;;32.33;18.80;;;;;;;;;;5072122;28;20419;-54
2022/05/07 04:29:16;;;;;;;24.47;17.57;;;;;;;;;;5074829;28;20408;-54
2022/05/07 04:31:43;;;;;;;28.70;19.70;;;;;;;;;;5075645;28;20885;-54
2022/05/07 04:34:09;;;;;;;23.93;19.03;;;;;;;;;;5075012;28;20503;-54
2022/05/07 04:36:35;;;;;;;24.43;17.73;;;;;;;;;;5075447;28;20846;-54
2022/05/07 04:39:01;;;;;;;23.90;17.80;;;;;;;;;;5074151;28;20504;-54
2022/05/07 04:41:27;;;;;;;26.87;17.70;;;;;;;;;;5074924;28;20448;-55
2022/05/07 04:43:53;;;;;;;30.33;21.90;;;;;;;;;;5075608;28;20796;-54
2022/05/07 04:46:19;;;;;;;23.20;18.90;;;;;;;;;;5075920;28;20402;-54
2022/05/07 04:48:46;;;;;;;32.13;20.27;;;;;;;;;;5076115;28;20405;-55
2022/05/07 04:51:12;;;;;;;30.63;20.10;;;;;;;;;;5075110;28;20396;-54
2022/05/07 04:53:38;;;;;;;30.60;19.07;;;;;;;;;;5075866;28;20449;-54
2022/05/07 04:56:04;;;;;;;28.70;19.77;;;;;;;;;;5075852;28;20766;-54
2022/05/07 04:58:30;;;;;;;26.43;18.90;;;;;;;;;;5076123;28;20896;-54
2022/05/07 05:00:56;;;;;;;27.30;18.83;;;;;;;;;;5075275;28;20392;-54
2022/05/07 05:03:22;;;;;;;26.13;19.30;;;;;;;;;;5075937;28;20420;-54
2022/05/07 05:05:48;;;;;;;26.83;19.43;;;;;;;;;;5075708;28;20923;-54
2022/05/07 05:08:14;;;;;;;25.10;17.30;;;;;;;;;;5075651;28;20407;-55
2022/05/07 05:10:40;;;;;;;22.90;17.03;;;;;;;;;;5075512;28;20400;-54
2022/05/07 05:13:06;;;;;;;26.60;17.67;;;;;;;;;;5074941;28;20428;-54
2022/05/07 05:15:32;;;;;;;23.70;17.50;;;;;;;;;;5075406;28;20440;-55
2022/05/07 05:17:59;;;;;;;26.57;18.00;;;;;;;;;;5075785;28;20413;-54
2022/05/07 05:20:25;;;;;;;26.43;17.47;;;;;;;;;;5075660;28;20397;-55
2022/05/07 05:22:51;;;;;;;26.83;18.00;;;;;;;;;;5075063;28;20416;-54
2022/05/07 05:25:20;;;;;;;26.20;18.20;;;;;;;;;;5075426;28;20815;-55
2022/05/07 05:27:46;;;;;;;21.43;16.80;;;;;;;;;;5075538;28;20450;-54
2022/05/07 05:30:12;;;;;;;24.60;18.70;;;;;;;;;;5075099;28;20400;-55
2022/05/07 05:32:39;;;;;;;33.97;19.13;;;;;;;;;;5073097;28;20421;-54
2022/05/07 05:35:05;;;;;;;24.60;18.67;;;;;;;;;;5075347;28;20455;-54
2022/05/07 05:37:31;;;;;;;29.00;18.37;;;;;;;;;;5075566;28;20487;-54
2022/05/07 05:39:57;;;;;;;24.70;18.70;;;;;;;;;;5074331;28;20419;-54
2022/05/07 05:42:24;;;;;;;27.60;18.57;;;;;;;;;;5074201;28;20374;-55
2022/05/07 05:44:50;;;;;;;26.80;19.80;;;;;;;;;;5074980;28;20495;-54
2022/05/07 05:47:16;;;;;;;27.73;19.30;;;;;;;;;;5075025;28;20409;-55
2022/05/07 05:49:42;;;;;;;25.23;18.90;;;;;;;;;;5075118;28;20396;-55
2022/05/07 05:52:08;;;;;;;28.00;19.53;;;;;;;;;;5074241;28;20423;-55
2022/05/07 05:54:35;;;;;;;32.20;22.17;;;;;;;;;;5075386;28;20455;-55
2022/05/07 05:57:01;;;;;;;19.50;15.90;;;;;;;;;;5074757;28;20950;-56
2022/05/07 05:59:28;;;;;;;19.50;15.97;;;;;;;;;;5074686;28;20404;-54
2022/05/07 06:01:54;;;;;;;23.53;17.50;;;;;;;;;;5074007;28;20405;-54
2022/05/07 06:04:20;;;;;;;25.33;21.50;;;;;;;;;;5074751;28;20471;-54
2022/05/07 06:06:46;;;;;;;22.90;18.03;;;;;;;;;;5074678;28;20777;-54
2022/05/07 06:09:12;;;;;;;25.37;18.87;;;;;;;;;;5074644;28;20391;-55
2022/05/07 06:11:38;;;;;;;22.30;17.53;;;;;;;;;;5074044;28;20420;-54
2022/05/07 06:14:04;;;;;;;21.90;17.03;;;;;;;;;;5074741;28;20459;-54
2022/05/07 06:16:30;;;;;;;26.77;16.53;;;;;;;;;;5074893;28;20461;-54
2022/05/07 06:18:56;;;;;;;24.60;17.63;;;;;;;;;;5074521;28;20380;-54
2022/05/07 06:21:22;;;;;;;20.37;16.03;;;;;;;;;;5074075;28;20434;-54
2022/05/07 06:23:48;;;;;;;21.73;17.73;;;;;;;;;;5074783;28;20433;-54
2022/05/07 06:29:01;;;;;;;26.63;17.50;;;;;;;;;;5074630;28;20734;-54
2022/05/07 06:31:27;;;;;;;26.47;18.00;;;;;;;;;;5073915;28;20406;-55
2022/05/07 06:33:53;;;;;;;22.40;16.07;;;;;;;;;;5072828;28;20450;-54
2022/05/07 06:36:19;;;;;;;21.20;16.00;;;;;;;;;;5074828;28;20429;-54
2022/05/07 06:38:45;;;;;;;20.93;15.70;;;;;;;;;;5074899;28;20454;-55
2022/05/07 06:41:11;;;;;;;22.63;15.07;;;;;;;;;;5073924;28;20866;-54
2022/05/07 06:43:37;;;;;;;23.67;16.07;;;;;;;;;;5074739;28;20416;-55
2022/05/07 06:46:03;;;;;;;24.17;17.60;;;;;;;;;;5074518;28;20375;-54
2022/05/07 06:48:29;;;;;;;22.77;17.50;;;;;;;;;;5074441;28;20478;-54
2022/05/07 06:50:56;;;;;;;22.50;16.93;;;;;;;;;;5073577;28;20867;-54
2022/05/07 06:53:22;;;;;;;24.80;17.10;;;;;;;;;;5074581;28;20472;-55
2022/05/07 06:55:59;;;;;;;24.23;16.53;;;;;;;;;;5074753;28;20382;-54
2022/05/07 06:58:29;;;;;;;25.10;17.43;;;;;;;;;;5074460;28;20459;-55
2022/05/07 07:00:57;;;;;;;20.17;15.70;;;;;;;;;;5074152;28;20399;-54
2022/05/07 07:03:24;;;;;;;23.37;16.20;;;;;;;;;;5074837;28;20486;-55
2022/05/07 07:05:50;;;;;;;27.00;17.03;;;;;;;;;;5074877;28;20403;-54
2022/05/07 07:08:17;;;;;;;25.30;16.77;;;;;;;;;;5074378;28;20420;-56
2022/05/07 07:10:43;;;;;;;25.37;16.90;;;;;;;;;;5074442;28;20456;-55
2022/05/07 07:13:09;;;;;;;22.53;16.33;;;;;;;;;;5073937;28;20427;-55
2022/05/07 07:15:39;;;;;;;24.53;17.97;;;;;;;;;;5074161;28;20444;-54
2022/05/07 07:18:09;;;;;;;26.70;18.20;;;;;;;;;;5073152;28;20372;-54
2022/05/07 07:20:35;;;;;;;25.87;17.23;;;;;;;;;;5074239;28;20408;-54
2022/05/07 07:23:01;;;;;;;27.20;17.60;;;;;;;;;;5073635;28;20513;-54
2022/05/07 07:25:27;;;;;;;24.30;17.53;;;;;;;;;;5075083;28;20434;-55
2022/05/07 07:27:53;;;;;;;24.97;17.30;;;;;;;;;;5074591;28;20415;-55
2022/05/07 07:30:19;;;;;;;26.43;17.07;;;;;;;;;;5074710;28;20476;-55
2022/05/07 07:32:45;;;;;;;26.67;17.70;;;;;;;;;;5072832;28;20430;-54
2022/05/07 07:35:11;;;;;;;24.47;17.47;;;;;;;;;;5074381;28;20772;-55
2022/05/07 07:37:37;;;;;;;24.67;18.10;;;;;;;;;;5074532;28;20760;-54
2022/05/07 07:40:04;;;;;;;24.67;17.23;;;;;;;;;;5074644;28;20828;-55
2022/05/07 07:42:30;;;;;;;30.33;18.50;;;;;;;;;;5074083;28;20434;-54
2022/05/07 07:47:56;;;;;;;29.00;19.40;;;;;;;;;;5074540;28;20487;-55
2022/05/07 07:50:23;;;;;;;23.20;16.90;;;;;;;;;;5074046;28;20416;-55
2022/05/07 07:52:52;;;;;;;25.77;18.33;;;;;;;;;;5072425;28;20468;-54
2022/05/07 07:55:18;;;;;;;25.80;16.60;;;;;;;;;;5073020;28;20453;-55
2022/05/07 07:57:44;;;;;;;27.73;17.70;;;;;;;;;;5072786;28;20503;-55
2022/05/07 08:00:10;;;;;;;23.80;17.07;;;;;;;;;;5072796;28;20396;-55
2022/05/07 08:02:46;;;;;;;20.20;16.40;;;;;;;;;;5071230;28;20511;-55
2022/05/07 08:05:12;;;;;;;23.47;18.10;;;;;;;;;;5072049;28;20408;-55
2022/05/07 08:13:07;;;;;;;24.27;16.13;;;;;;;;;;5071466;28;20454;-55
2022/05/07 08:15:33;;;;;;;21.10;16.70;;;;;;;;;;5072185;28;20430;-56
2022/05/07 08:17:59;;;;;;;18.77;15.23;;;;;;;;;;5072184;28;20490;-55
2022/05/07 08:20:25;;;;;;;21.80;15.80;;;;;;;;;;5072209;28;20427;-55
2022/05/07 08:22:51;;;;;;;17.47;15.53;;;;;;;;;;5071494;28;20419;-55
2022/05/07 08:25:17;;;;;;;17.97;15.00;;;;;;;;;;5072041;28;20404;-55
2022/05/07 08:27:43;;;;;;;23.90;15.63;;;;;;;;;;5072053;28;20461;-55
2022/05/07 08:30:09;;;;;;;21.80;15.43;;;;;;;;;;5072530;28;20407;-55
2022/05/07 08:32:35;;;;;;;21.53;15.37;;;;;;;;;;5072366;28;20424;-56
2022/05/07 08:35:01;;;;;;;17.70;14.60;;;;;;;;;;5072423;28;20474;-56
2022/05/07 08:37:27;;;;;;;20.40;15.43;;;;;;;;;;5072610;28;20823;-55
2022/05/07 08:39:53;;;;;;;17.83;12.60;;;;;;;;;;5072542;28;20780;-55
2022/05/07 08:42:19;;;;;;;16.73;12.63;;;;;;;;;;5072027;28;20481;-55
2022/05/07 08:44:45;;;;;;;20.30;14.03;;;;;;;;;;5070665;28;20405;-56
2022/05/07 08:47:10;;;;;;;15.40;12.80;;;;;;;;;;5072813;28;20396;-55
2022/05/07 08:49:36;;;;;;;17.73;12.63;;;;;;;;;;5072922;28;20400;-55
2022/05/07 08:52:03;;;;;;;13.63;12.13;;;;;;;;;;5072149;28;20416;-56
2022/05/07 08:54:30;;;;;;;18.90;14.20;;;;;;;;;;5072796;28;20539;-56
2022/05/07 08:56:56;;;;;;;13.40;11.27;;;;;;;;;;5073449;28;20404;-55
2022/05/07 08:59:22;;;;;;;15.90;12.30;;;;;;;;;;5072597;28;20400;-55
2022/05/07 09:01:48;;;;;;;19.50;13.97;;;;;;;;;;5072357;28;20400;-55
2022/05/07 09:04:14;;;;;;;16.87;12.13;;;;;;;;;;5073138;28;21048;-55
2022/05/07 09:06:40;;;;;;;14.90;10.50;;;;;;;;;;5072921;28;20477;-55
2022/05/07 09:09:07;;;;;;;17.93;12.93;;;;;;;;;;5073097;28;20399;-55
2022/05/07 09:11:43;;;;;;;18.70;12.60;;;;;;;;;;5072494;28;20408;-54
2022/05/07 09:14:09;;;;;;;24.27;14.57;;;;;;;;;;5072765;28;20517;-55
2022/05/07 09:16:39;;;;;;;19.53;14.10;;;;;;;;;;5075574;28;20411;-56
2022/05/07 09:19:05;;;;;;;21.50;15.20;;;;;;;;;;5076767;28;20392;-55
2022/05/07 09:21:32;;;;;;;21.73;15.20;;;;;;;;;;5075893;28;20424;-56
2022/05/07 09:23:58;;;;;;;19.13;14.37;;;;;;;;;;5076024;28;20801;-55
2022/05/07 09:26:27;;;;;;;21.40;14.50;;;;;;;;;;5076135;28;20480;-55
2022/05/07 09:28:53;;;;;;;18.77;13.50;;;;;;;;;;5076549;28;20404;-56
2022/05/07 09:31:23;;;;;;;19.50;15.40;;;;;;;;;;5075684;28;20436;-56
2022/05/07 09:33:49;;;;;;;22.50;15.20;;;;;;;;;;5076376;28;20448;-55
2022/05/07 09:36:15;;;;;;;21.63;17.20;;;;;;;;;;5076360;28;20396;-55
2022/05/07 09:38:41;;;;;;;21.13;14.67;;;;;;;;;;5076005;28;20859;-55
2022/05/07 09:41:07;;;;;;;20.87;16.07;;;;;;;;;;5075584;28;20859;-56
2022/05/07 09:43:33;;;;;;;22.40;15.90;;;;;;;;;;5075822;28;20442;-55
2022/05/07 09:46:00;;;;;;;18.63;13.13;;;;;;;;;;5076116;28;20415;-56
2022/05/07 09:48:26;;;;;;;14.87;11.27;;;;;;;;;;5075583;28;20401;-55
2022/05/07 09:50:52;;;;;;;15.83;12.40;;;;;;;;;;5075681;28;20458;-55
2022/05/07 09:58:51;;;;;;;20.00;15.07;;;;;;;;;;5055214;28;20417;-55
2022/05/07 10:01:35;;;;;;;20.70;14.27;;;;;;;;;;5069700;28;20409;-54
2022/05/07 10:04:20;;;;;;;18.90;13.23;;;;;;;;;;5074141;28;20430;-55
2022/05/07 10:07:01;;;;;;;22.37;14.70;;;;;;;;;;5074650;28;20418;-55
2022/05/07 10:09:36;;;;;;;17.43;14.17;;;;;;;;;;5074503;28;20548;-55
2022/05/07 10:12:02;;;;;;;20.43;14.83;;;;;;;;;;5074262;28;20781;-54
2022/05/07 10:14:30;;;;;;;24.07;14.53;;;;;;;;;;5073969;28;20458;-54
2022/05/07 10:16:56;;;;;;;21.00;15.93;;;;;;;;;;5073904;28;20415;-55
2022/05/07 10:19:32;;;;;;;21.20;15.63;;;;;;;;;;5074072;28;20871;-55
2022/05/07 10:21:59;;;;;;;21.17;17.30;;;;;;;;;;5073448;28;20403;-55
2022/05/07 10:24:25;;;;;;;22.27;18.70;;;;;;;;;;5074301;28;20758;-55
2022/05/07 10:26:51;;;;;;;18.60;16.40;;;;;;;;;;5074036;28;20428;-56
2022/05/07 10:29:21;;;;;;;22.97;19.87;;;;;;;;;;5073855;28;20436;-55
2022/05/07 10:31:47;;;;;;;24.20;18.50;;;;;;;;;;5073638;28;20491;-55
2022/05/07 10:34:26;;;;;;;19.93;15.43;;;;;;;;;;5074581;28;21098;-55
2022/05/07 10:37:05;;;;;;;22.20;16.57;;;;;;;;;;5074484;28;20820;-55
2022/05/07 10:39:32;;;;;;;20.60;16.40;;;;;;;;;;5073710;28;20393;-55
2022/05/07 10:41:59;;;;;;;21.50;16.60;;;;;;;;;;5072803;28;20400;-55
2022/05/07 10:44:30;;;;;;;22.50;18.23;;;;;;;;;;5073189;28;20429;-55
2022/05/07 10:46:56;;;;;;;20.63;18.10;;;;;;;;;;5073287;28;20490;-55
2022/05/07 10:49:22;;;;;;;25.50;18.83;;;;;;;;;;5073060;28;21003;-55
2022/05/07 10:51:51;;;;;;;23.50;18.40;;;;;;;;;;5072279;28;20438;-55
2022/05/07 10:54:18;;;;;;;25.47;20.33;;;;;;;;;;5072887;28;20979;-55
2022/05/07 10:56:48;;;;;;;24.00;19.53;;;;;;;;;;5073013;28;20404;-56
2022/05/07 10:59:14;;;;;;;25.13;19.90;;;;;;;;;;5072815;28;20403;-55
2022/05/07 11:01:42;;;;;;;28.93;19.17;;;;;;;;;;5072288;28;20784;-55
2022/05/07 11:04:10;;;;;;;27.47;21.00;;;;;;;;;;5069583;28;20935;-56
2022/05/07 11:06:45;;;;;;;23.30;18.30;;;;;;;;;;5064598;28;20554;-55
2022/05/07 11:09:15;;;;;;;22.87;18.67;;;;;;;;;;5052617;28;20401;-55
2022/05/07 11:11:46;;;;;;;30.63;21.90;;;;;;;;;;5052163;28;20746;-55
2022/05/07 11:14:23;;;;;;;27.67;19.67;;;;;;;;;;5052492;28;20461;-55
2022/05/07 11:16:49;;;;;;;23.63;17.40;;;;;;;;;;5052618;28;20765;-55
2022/05/07 11:19:25;;;;;;;23.00;16.47;;;;;;;;;;5051912;28;20935;-55
2022/05/07 11:21:55;;;;;;;25.10;20.10;;;;;;;;;;5052460;28;20413;-56
2022/05/07 11:24:21;;;;;;;20.67;17.03;;;;;;;;;;5053857;28;20451;-56
2022/05/07 11:26:55;;;;;;;16.57;14.63;;;;;;;;;;5053346;28;20398;-55
2022/05/07 11:29:21;;;;;;;19.27;15.57;;;;;;;;;;5054383;28;20732;-56
2022/05/07 11:31:57;;;;;;;16.03;13.60;;;;;;;;;;5053911;28;20413;-56
2022/05/07 11:34:31;;;;;;;18.00;14.30;;;;;;;;;;5053418;28;20831;-55
2022/05/07 11:36:57;;;;;;;18.50;14.80;;;;;;;;;;5054150;28;20405;-54
2022/05/07 11:39:24;;;;;;;27.83;13.77;;;;;;;;;;5051839;28;20409;-55
2022/05/07 11:41:54;;;;;;;13.77;12.33;;;;;;;;;;5052230;28;20401;-55
2022/05/07 11:47:20;;;;;;;9.20;7.87;;;;;;;;;;5052942;28;20404;-55
2022/05/07 11:49:57;;;;;;;17.67;12.87;;;;;;;;;;5052754;28;20440;-55
2022/05/07 11:52:27;;;;;;;12.87;11.53;;;;;;;;;;5050556;28;20433;-55
2022/05/07 11:54:53;;;;;;;14.83;9.90;;;;;;;;;;5053726;28;20472;-55
2022/05/07 11:57:29;;;;;;;13.90;11.27;;;;;;;;;;5053390;28;20775;-54
2022/05/07 11:59:55;;;;;;;11.70;9.80;;;;;;;;;;5053619;28;20412;-55
2022/05/07 12:02:21;;;;;;;12.73;10.70;;;;;;;;;;5052803;28;20429;-56
2022/05/07 12:04:56;;;;;;;13.13;8.77;;;;;;;;;;5054016;28;20936;-55
2022/05/07 12:07:22;;;;;;;10.97;8.67;;;;;;;;;;5054191;28;20479;-56
2022/05/07 12:09:48;;;;;;;12.77;8.90;;;;;;;;;;5054220;28;20897;-56
2022/05/07 12:12:14;;;;;;;12.93;11.50;;;;;;;;;;5053985;28;20424;-56
2022/05/07 12:14:40;;;;;;;13.33;11.60;;;;;;;;;;5054498;28;20814;-55
2022/05/07 12:19:51;;;;;;;15.97;9.67;;;;;;;;;;5052519;28;20480;-55
2022/05/07 12:30:31;;;;;;;19.13;11.90;;;;;;;;;;5052080;28;20454;-55
2022/05/07 12:32:57;;;;;;;12.50;11.20;;;;;;;;;;5052709;28;20421;-55
2022/05/07 12:35:23;;;;;;;17.33;12.40;;;;;;;;;;5072211;28;20447;-55
2022/05/07 12:37:49;;;;;;;16.63;13.27;;;;;;;;;;5070417;28;20917;-55
2022/05/07 12:40:15;;;;;;;17.37;12.93;;;;;;;;;;5072218;28;20873;-55
2022/05/07 12:42:41;;;;;;;13.50;12.03;;;;;;;;;;5072440;28;20829;-56
2022/05/07 12:45:07;;;;;;;16.40;12.80;;;;;;;;;;5073185;28;20482;-56
2022/05/07 12:47:33;;;;;;;13.63;12.00;;;;;;;;;;5073738;28;20396;-55
2022/05/07 12:49:59;;;;;;;11.60;10.40;;;;;;;;;;5075348;28;20410;-56
2022/05/07 12:52:25;;;;;;;11.40;10.30;;;;;;;;;;5077390;28;20993;-56
2022/05/07 12:54:52;;;;;;;10.70;9.60;;;;;;;;;;5077476;28;21017;-56
2022/05/07 12:57:18;;;;;;;11.20;9.60;;;;;;;;;;5077419;28;20403;-55
2022/05/07 12:59:45;;;;;;;9.47;8.50;;;;;;;;;;5077018;28;20482;-55
2022/05/07 13:02:12;;;;;;;12.80;9.43;;;;;;;;;;5075997;28;20400;-55
2022/05/07 13:04:38;;;;;;;11.73;9.37;;;;;;;;;;5076731;28;20407;-55
2022/05/07 13:07:04;;;;;;;11.53;9.73;;;;;;;;;;5076038;28;20407;-54
2022/05/07 13:09:31;;;;;;;13.67;10.87;;;;;;;;;;5075194;28;20861;-55
2022/05/07 13:11:57;;;;;;;13.80;12.40;;;;;;;;;;5074732;28;20810;-55
2022/05/07 13:14:23;;;;;;;14.37;12.97;;;;;;;;;;5075068;28;20551;-55
2022/05/07 13:16:49;;;;;;;20.30;16.03;;;;;;;;;;5075526;28;20400;-55
2022/05/07 13:19:15;;;;;;;18.67;15.57;;;;;;;;;;5074875;28;20425;-55
2022/05/07 13:21:42;;;;;;;17.77;15.77;;;;;;;;;;5074262;28;20401;-55
2022/05/07 13:24:11;;;;;;;20.47;15.70;;;;;;;;;;5074594;28;20428;-55
2022/05/07 13:26:41;;;;;;;22.57;16.80;;;;;;;;;;5074735;28;20408;-55
2022/05/07 13:29:07;;;;;;;24.33;17.27;;;;;;;;;;5074640;28;20399;-55
2022/05/07 13:31:35;;;;;;;20.27;17.83;;;;;;;;;;5073896;28;20900;-55
2022/05/07 13:34:01;;;;;;;20.73;17.97;;;;;;;;;;5074297;28;20909;-55
2022/05/07 13:36:26;;;;;;;21.77;16.90;;;;;;;;;;5074435;28;20483;-55
2022/05/07 13:38:54;;;;;;;21.47;16.97;;;;;;;;;;5074617;28;20439;-55
2022/05/07 13:41:21;;;;;;;18.80;15.93;;;;;;;;;;5073945;28;20396;-55
2022/05/07 13:43:47;;;;;;;13.17;11.83;;;;;;;;;;5074346;28;20939;-55
2022/05/07 13:46:14;;;;;;;13.70;12.50;;;;;;;;;;5074723;28;20411;-55
2022/05/07 13:48:39;;;;;;;16.03;11.77;;;;;;;;;;5075496;28;20404;-55
2022/05/07 13:51:06;;;;;;;12.33;10.93;;;;;;;;;;5075697;28;20400;-55
2022/05/07 13:53:32;;;;;;;13.03;10.70;;;;;;;;;;5076649;28;20516;-55
2022/05/07 13:55:58;;;;;;;13.43;11.27;;;;;;;;;;5077419;28;20469;-55
2022/05/07 13:58:24;;;;;;;13.23;12.03;;;;;;;;;;5077307;28;20798;-56
2022/05/07 14:00:51;;;;;;;19.17;13.37;;;;;;;;;;5075629;28;20416;-55
2022/05/07 14:03:17;;;;;;;21.20;15.27;;;;;;;;;;5076980;28;20447;-56
2022/05/07 14:05:43;;;;;;;23.00;19.30;;;;;;;;;;5076993;28;20401;-56
2022/05/07 14:08:09;;;;;;;19.03;16.90;;;;;;;;;;5076893;28;20397;-55
2022/05/07 14:10:36;;;;;;;17.13;15.33;;;;;;;;;;5075776;28;20953;-55
2022/05/07 14:13:02;;;;;;;16.20;14.50;;;;;;;;;;5073957;28;20427;-56
2022/05/07 14:15:28;;;;;;;16.10;13.93;;;;;;;;;;5074380;28;21185;-55
2022/05/07 14:17:55;;;;;;;14.50;13.07;;;;;;;;;;5074402;28;21137;-56
2022/05/07 14:20:21;;;;;;;14.67;13.10;;;;;;;;;;5074703;28;20401;-56
2022/05/07 14:22:47;;;;;;;11.67;10.20;;;;;;;;;;5074207;28;20424;-56
2022/05/07 14:25:13;;;;;;;10.30;9.20;;;;;;;;;;5075226;28;20465;-56
2022/05/07 14:27:40;;;;;;;12.73;9.50;;;;;;;;;;5075403;28;20404;-55
2022/05/07 14:30:06;;;;;;;11.17;8.50;;;;;;;;;;5076614;28;20479;-56
2022/05/07 14:32:32;;;;;;;9.30;8.40;;;;;;;;;;5074147;28;20430;-56
2022/05/07 14:34:58;;;;;;;10.67;8.33;;;;;;;;;;5075705;28;20451;-56
2022/05/07 14:37:24;;;;;;;8.70;7.90;;;;;;;;;;5075281;28;20518;-55
2022/05/07 14:39:50;;;;;;;8.20;7.50;;;;;;;;;;5074555;28;20458;-55
2022/05/07 14:42:18;;;;;;;8.33;7.63;;;;;;;;;;5074269;28;20435;-56
2022/05/07 14:44:44;;;;;;;9.33;8.43;;;;;;;;;;5074458;28;20460;-55
2022/05/07 14:47:09;;;;;;;9.77;7.60;;;;;;;;;;5074043;28;20412;-55
2022/05/07 14:49:35;;;;;;;7.80;7.10;;;;;;;;;;5073838;28;20440;-55
2022/05/07 14:52:01;;;;;;;9.07;8.30;;;;;;;;;;5073302;28;20436;-55
2022/05/07 14:54:27;;;;;;;9.60;8.77;;;;;;;;;;5073694;28;20502;-55
2022/05/07 14:56:53;;;;;;;9.10;8.23;;;;;;;;;;5073779;28;20920;-56
2022/05/07 14:59:19;;;;;;;7.70;7.10;;;;;;;;;;5073729;28;20401;-55
2022/05/07 15:01:45;;;;;;;8.27;7.37;;;;;;;;;;5073281;28;20408;-55